• Join FlightAware (Why Join?)
  • Login
  • US Flag 
04:19PM EST


 

Airport Tracker/Info


-or-


 

Live Flight TrackerFlight Track Log ✈ ASQ5740 ✈ 19-Apr-2013 ✈ KIAD - KBTV

Flight Track Log - Related Links

Times and Time Zones

All times are in EDT time to prevent confusion due to time zone crossing. See the ASQ5740 flight status page for this flight to view local times or setup timezone preferences in your user account.

Time Position Orientation Groundspeed Altitude Reporting Facility
EDT Latitude Longitude Course Direction KTS MPH feet Rate Location/Type
03:49PM 38.9500 -77.5167 78° East 253 291 2,700  Level Potomac TRACON
03:50PM 39.0167 -77.5833 322° Northwest 290 334 5,300 2,700 Climbing Potomac TRACON
03:50PM 39.0650 -77.6314 322° Northwest 294 338 7,500 2,280 Climbing Washington Center
03:51PM 39.0251 -76.9163 72° East  Level FlightAware Approximate
03:51PM 39.1261 -77.5956 24° Northeast 347 399 9,300  Level Washington Center
03:52PM 39.0500 -76.7829 90° East  Level FlightAware Approximate
03:52PM 39.1636 -77.4547 71° East 370 426 10,100  Level Washington Center
03:53PM 39.0775 -76.6507 67° East  Level FlightAware Approximate
03:53PM 39.1781 -77.3319 81° East 395 455 10,100  Level Washington Center
03:54PM 39.0920 -76.5150 78° East  Level FlightAware Approximate
03:54PM 39.1589 -77.2111 102° East 383 441 11,300  Level Washington Center
03:55PM 39.1397 -77.0875 101° East 359 413 12,800 1,320 Climbing Washington Center
03:56PM 39.1203 -76.9533 101° East 354 407 14,000 1,260 Climbing Washington Center
03:57PM 39.1114 -76.8142 95° East 371 427 15,400 1,440 Climbing Washington Center
03:58PM 39.1233 -76.6697 84° East 387 445 16,900 1,440 Climbing Washington Center
03:59PM 39.1308 -76.5228 86° East 400 460 18,300 1,200 Climbing Washington Center
04:00PM 39.1381 -76.3756 86° East 406 467 19,400 900 Climbing Washington Center
04:01PM 39.1492 -76.2258 84° East 411 473 20,200 840 Climbing Washington Center
04:02PM 39.1731 -76.0547 80° East 423 487 21,100 840 Climbing Washington Center
04:03PM 39.1922 -75.9022 81° East 423 487 21,900 780 Climbing Washington Center
04:04PM 39.2739 -75.7767 50° Northeast 423 487 22,700 780 Climbing Washington Center
04:05PM 39.3656 -75.6614 44° Northeast 443 510 23,500 600 Climbing Washington Center
04:06PM 39.4531 -75.5406 47° Northeast 448 516 24,000 420 Climbing Washington Center
04:07PM 39.5467 -75.4247 44° Northeast 453 521 24,400 480 Climbing Washington Center
04:08PM 39.6361 -75.3058 46° Northeast 453 521 25,000 540 Climbing Washington Center
04:09PM 39.7211 -75.1869 47° Northeast 453 521 25,500 480 Climbing Washington Center
04:10PM 39.8081 -75.0594 48° Northeast 453 521 26,000 480 Climbing Washington Center
04:13PM 40.0189 -74.7606 47° Northeast 465 535 27,200 480 Climbing New York Center
04:14PM 40.1044 -74.6381 48° Northeast 453 521 27,800 480 Climbing New York Center
04:15PM 40.1917 -74.5153 47° Northeast 454 522 28,200 420 Climbing New York Center
04:16PM 40.2803 -74.4139 41° Northeast 454 522 28,700 420 Climbing New York Center
04:17PM 40.4006 -74.3711 15° North 426 490 29,100 420 Climbing New York Center
04:18PM 40.5242 -74.3422 10° North 426 490 29,600 480 Climbing New York Center
04:21PM 40.8714 -74.2022 17° North 448 516 31,000 360 Climbing Boston Center
04:22PM 40.9950 -74.1753 North 448 516 31,000  Level Boston Center
04:23PM 41.1244 -74.1486 North 469 540 31,000  Level Boston Center
04:24PM 41.2519 -74.1217 North 469 540 31,000  Level Boston Center
04:25PM 41.3775 -74.0917 10° North 464 534 31,000  Level Boston Center
04:26PM 41.5050 -74.0644 North 464 534 31,000  Level Boston Center
04:27PM 41.6347 -74.0400 North 464 534 31,000  Level Boston Center
04:28PM 41.7600 -74.0153 North 464 534 31,000  Level Boston Center
04:29PM 41.8728 -73.9958 North 462 532 31,000  Level Boston Center
04:30PM 42.0003 -73.9683 North 456 525 31,000  Level Boston Center
04:31PM 42.1278 -73.9378 10° North 456 525 31,000  Level Boston Center
04:32PM 42.2553 -73.9128 North 461 531 31,000  Level Boston Center
04:33PM 42.3828 -73.8875 North 461 531 31,000  Level Boston Center
04:34PM 42.5103 -73.8597 North 466 536 31,000  Level Boston Center
04:35PM 42.6733 -73.8208 10° North 466 536 31,000  Level Boston Center
04:36PM 42.8031 -73.7869 11° North 466 536 31,000  Level Boston Center
04:37PM 42.9306 -73.7444 14° North 466 536 31,000 -480 Level Boston Center
04:38PM 43.0875 -73.6967 13° North 471 542 30,000 -1,020 Descending Boston Center
04:39PM 43.2067 -73.6564 14° North 471 542 29,000 -1,080 Descending Boston Center
04:40PM 43.3364 -73.6075 15° North 471 542 27,900 -1,200 Descending Boston Center
04:41PM 43.4542 -73.5156 30° Northeast 478 550 26,600 -2,160 Descending Boston Center
04:42PM 43.5675 -73.4200 31° Northeast 478 550 23,700 -3,240 Descending Boston Center
04:43PM 43.7011 -73.3706 15° North 460 529 20,300 -3,360 Descending Boston Center
04:44PM 43.8222 -73.3378 11° North 441 507 17,000 -3,300 Descending Boston Center
04:45PM 43.9433 -73.3081 10° North 430 495 13,600 -3,060 Descending Boston Center
04:46PM 44.0494 -73.3414 347° North 404 465 10,900 -1,860 Descending Boston Center
04:47PM 44.1472 -73.3689 349° North 375 432 9,600 -1,560 Descending Boston Center
04:48PM 44.2450 -73.3675 North 324 373 7,500 -2,220 Descending Boston Center
04:49PM 44.3328 -73.3486 North 324 373 5,100 -2,280 Descending Boston Center
04:50PM 44.4161 -73.3322 North 310 357 3,100 -1,500 Descending Boston Center
04:51PM 44.4833 -73.2867 26° Northeast 275 316 2,200 -840 Descending Boston Center
04:52PM 44.5150 -73.2261 54° Northeast 209 241 1,500 -60 Descending Boston Center
04:53PM 44.4903 -73.1822 128° Southeast 123 142 2,100 240 Climbing Boston Center
04:54PM 44.5094 -73.1242 65° Northeast 141 162 2,000 -60 Descending Boston Center
04:55PM 44.5464 -73.1742 316° Northwest 120 138 2,000 -60 Level Boston Center
04:56PM 44.5461 -73.2294 270° West 166 191 1,900 -300 Descending Boston Center
04:57PM 44.5108 -73.2144 163° South 98 113 1,400 -540 Descending Boston Center